sensor_id;sensor_type;location;lat;lon;timestamp;P1;durP1;ratioP1;P2;durP2;ratioP2
40871;SDS011;26591;43.264;26.940;2022-09-09T00:00:58;5.88;;;2.75;;
40871;SDS011;26591;43.264;26.940;2022-09-09T00:03:35;8.55;;;2.75;;
40871;SDS011;26591;43.264;26.940;2022-09-09T00:11:29;3.67;;;2.45;;
40871;SDS011;26591;43.264;26.940;2022-09-09T00:14:34;5.68;;;2.60;;
40871;SDS011;26591;43.264;26.940;2022-09-09T00:16:59;5.10;;;2.38;;
40871;SDS011;26591;43.264;26.940;2022-09-09T00:20:12;5.00;;;2.65;;
40871;SDS011;26591;43.264;26.940;2022-09-09T00:22:36;4.53;;;2.75;;
40871;SDS011;26591;43.264;26.940;2022-09-09T00:28:02;2.92;;;2.38;;
40871;SDS011;26591;43.264;26.940;2022-09-09T00:30:31;6.57;;;3.03;;
40871;SDS011;26591;43.264;26.940;2022-09-09T00:33:01;5.90;;;2.65;;
40871;SDS011;26591;43.264;26.940;2022-09-09T00:35:37;6.95;;;3.28;;
40871;SDS011;26591;43.264;26.940;2022-09-09T00:38:51;4.28;;;2.75;;
40871;SDS011;26591;43.264;26.940;2022-09-09T00:43:49;6.15;;;3.05;;
40871;SDS011;26591;43.264;26.940;2022-09-09T00:46:41;4.47;;;2.63;;
40871;SDS011;26591;43.264;26.940;2022-09-09T00:52:08;4.95;;;2.33;;
40871;SDS011;26591;43.264;26.940;2022-09-09T00:57:35;4.07;;;2.33;;
40871;SDS011;26591;43.264;26.940;2022-09-09T01:11:33;4.05;;;2.20;;
40871;SDS011;26591;43.264;26.940;2022-09-09T01:17:02;3.00;;;2.58;;
40871;SDS011;26591;43.264;26.940;2022-09-09T01:27:32;4.22;;;2.40;;
40871;SDS011;26591;43.264;26.940;2022-09-09T01:30:00;4.80;;;2.33;;
40871;SDS011;26591;43.264;26.940;2022-09-09T01:32:39;6.63;;;2.85;;
40871;SDS011;26591;43.264;26.940;2022-09-09T01:35:37;4.90;;;3.03;;
40871;SDS011;26591;43.264;26.940;2022-09-09T01:38:04;3.25;;;2.38;;
40871;SDS011;26591;43.264;26.940;2022-09-09T01:40:31;3.95;;;2.47;;
40871;SDS011;26591;43.264;26.940;2022-09-09T01:42:57;5.70;;;2.42;;
40871;SDS011;26591;43.264;26.940;2022-09-09T01:45:23;4.57;;;2.10;;
40871;SDS011;26591;43.264;26.940;2022-09-09T01:47:49;4.95;;;2.83;;
40871;SDS011;26591;43.264;26.940;2022-09-09T01:50:18;10.93;;;2.90;;
40871;SDS011;26591;43.264;26.940;2022-09-09T01:52:45;2.58;;;2.10;;
40871;SDS011;26591;43.264;26.940;2022-09-09T01:55:14;6.13;;;2.40;;
40871;SDS011;26591;43.264;26.940;2022-09-09T01:57:47;2.78;;;2.08;;
40871;SDS011;26591;43.264;26.940;2022-09-09T02:00:38;4.30;;;1.90;;
40871;SDS011;26591;43.264;26.940;2022-09-09T02:03:26;3.50;;;2.30;;
40871;SDS011;26591;43.264;26.940;2022-09-09T02:09:00;5.70;;;2.60;;
40871;SDS011;26591;43.264;26.940;2022-09-09T02:11:29;10.98;;;2.30;;
40871;SDS011;26591;43.264;26.940;2022-09-09T02:13:57;4.18;;;2.40;;
40871;SDS011;26591;43.264;26.940;2022-09-09T02:16:44;4.32;;;2.75;;
40871;SDS011;26591;43.264;26.940;2022-09-09T02:19:35;7.15;;;2.65;;
40871;SDS011;26591;43.264;26.940;2022-09-09T02:22:04;5.18;;;2.60;;
40871;SDS011;26591;43.264;26.940;2022-09-09T02:24:31;6.05;;;2.80;;
40871;SDS011;26591;43.264;26.940;2022-09-09T02:27:00;5.40;;;2.65;;
40871;SDS011;26591;43.264;26.940;2022-09-09T02:29:42;5.77;;;2.77;;
40871;SDS011;26591;43.264;26.940;2022-09-09T02:32:14;3.40;;;2.35;;
40871;SDS011;26591;43.264;26.940;2022-09-09T02:34:47;3.60;;;2.60;;
40871;SDS011;26591;43.264;26.940;2022-09-09T02:37:20;5.82;;;2.50;;
40871;SDS011;26591;43.264;26.940;2022-09-09T02:39:50;3.40;;;2.35;;
40871;SDS011;26591;43.264;26.940;2022-09-09T02:42:16;5.88;;;2.33;;
40871;SDS011;26591;43.264;26.940;2022-09-09T02:44:41;3.72;;;2.65;;
40871;SDS011;26591;43.264;26.940;2022-09-09T02:49:55;4.45;;;2.65;;
40871;SDS011;26591;43.264;26.940;2022-09-09T02:52:50;7.15;;;2.80;;
40871;SDS011;26591;43.264;26.940;2022-09-09T02:58:06;4.78;;;2.30;;
40871;SDS011;26591;43.264;26.940;2022-09-09T03:00:36;9.82;;;2.65;;
40871;SDS011;26591;43.264;26.940;2022-09-09T03:03:04;5.20;;;2.30;;
40871;SDS011;26591;43.264;26.940;2022-09-09T03:05:31;7.97;;;2.50;;
40871;SDS011;26591;43.264;26.940;2022-09-09T03:07:57;7.00;;;2.67;;
40871;SDS011;26591;43.264;26.940;2022-09-09T03:10:22;6.30;;;2.88;;
40871;SDS011;26591;43.264;26.940;2022-09-09T03:12:48;5.07;;;2.60;;
40871;SDS011;26591;43.264;26.940;2022-09-09T03:15:14;7.72;;;2.63;;
40871;SDS011;26591;43.264;26.940;2022-09-09T03:17:40;3.95;;;2.72;;
40871;SDS011;26591;43.264;26.940;2022-09-09T03:20:06;5.95;;;2.53;;
40871;SDS011;26591;43.264;26.940;2022-09-09T03:22:33;6.55;;;2.72;;
40871;SDS011;26591;43.264;26.940;2022-09-09T03:24:59;7.55;;;2.72;;
40871;SDS011;26591;43.264;26.940;2022-09-09T03:27:24;4.60;;;2.35;;
40871;SDS011;26591;43.264;26.940;2022-09-09T03:29:50;4.18;;;2.30;;
40871;SDS011;26591;43.264;26.940;2022-09-09T03:32:16;6.13;;;2.38;;
40871;SDS011;26591;43.264;26.940;2022-09-09T03:34:42;5.68;;;2.38;;
40871;SDS011;26591;43.264;26.940;2022-09-09T03:37:08;8.52;;;2.80;;
40871;SDS011;26591;43.264;26.940;2022-09-09T03:39:34;7.05;;;2.40;;
40871;SDS011;26591;43.264;26.940;2022-09-09T03:41:59;9.05;;;2.50;;
40871;SDS011;26591;43.264;26.940;2022-09-09T03:44:29;10.95;;;2.80;;
40871;SDS011;26591;43.264;26.940;2022-09-09T03:46:55;7.20;;;2.67;;
40871;SDS011;26591;43.264;26.940;2022-09-09T03:49:20;7.32;;;2.75;;
40871;SDS011;26591;43.264;26.940;2022-09-09T03:51:47;8.70;;;2.67;;
40871;SDS011;26591;43.264;26.940;2022-09-09T03:54:12;10.23;;;2.35;;
40871;SDS011;26591;43.264;26.940;2022-09-09T03:56:38;8.52;;;2.60;;
40871;SDS011;26591;43.264;26.940;2022-09-09T03:59:04;4.88;;;2.40;;
40871;SDS011;26591;43.264;26.940;2022-09-09T04:01:30;8.85;;;3.17;;
40871;SDS011;26591;43.264;26.940;2022-09-09T04:03:55;6.00;;;3.00;;
40871;SDS011;26591;43.264;26.940;2022-09-09T04:06:23;7.57;;;2.92;;
40871;SDS011;26591;43.264;26.940;2022-09-09T04:08:49;7.07;;;2.83;;
40871;SDS011;26591;43.264;26.940;2022-09-09T04:11:15;8.63;;;2.92;;
40871;SDS011;26591;43.264;26.940;2022-09-09T04:13:41;9.07;;;3.08;;
40871;SDS011;26591;43.264;26.940;2022-09-09T04:16:07;13.35;;;2.95;;
40871;SDS011;26591;43.264;26.940;2022-09-09T04:18:34;17.13;;;3.42;;
40871;SDS011;26591;43.264;26.940;2022-09-09T04:21:00;10.93;;;2.83;;
40871;SDS011;26591;43.264;26.940;2022-09-09T04:23:26;8.95;;;3.13;;
40871;SDS011;26591;43.264;26.940;2022-09-09T04:25:57;8.55;;;2.78;;
40871;SDS011;26591;43.264;26.940;2022-09-09T04:28:24;15.82;;;2.97;;
40871;SDS011;26591;43.264;26.940;2022-09-09T04:30:52;9.80;;;2.83;;
40871;SDS011;26591;43.264;26.940;2022-09-09T04:33:17;12.25;;;3.25;;
40871;SDS011;26591;43.264;26.940;2022-09-09T04:35:48;9.15;;;3.03;;
40871;SDS011;26591;43.264;26.940;2022-09-09T04:38:15;8.50;;;3.03;;
40871;SDS011;26591;43.264;26.940;2022-09-09T04:40:51;12.93;;;3.15;;
40871;SDS011;26591;43.264;26.940;2022-09-09T04:43:19;9.90;;;3.13;;
40871;SDS011;26591;43.264;26.940;2022-09-09T04:45:50;9.20;;;3.25;;
40871;SDS011;26591;43.264;26.940;2022-09-09T04:48:16;9.65;;;3.55;;
40871;SDS011;26591;43.264;26.940;2022-09-09T04:50:42;15.70;;;3.88;;
40871;SDS011;26591;43.264;26.940;2022-09-09T04:53:07;9.60;;;3.05;;
40871;SDS011;26591;43.264;26.940;2022-09-09T04:55:33;8.88;;;2.97;;
40871;SDS011;26591;43.264;26.940;2022-09-09T04:58:03;11.07;;;3.50;;
40871;SDS011;26591;43.264;26.940;2022-09-09T05:00:30;18.13;;;3.58;;
40871;SDS011;26591;43.264;26.940;2022-09-09T05:02:56;7.28;;;2.95;;
40871;SDS011;26591;43.264;26.940;2022-09-09T05:05:22;11.40;;;3.17;;
40871;SDS011;26591;43.264;26.940;2022-09-09T05:07:47;19.92;;;3.45;;
40871;SDS011;26591;43.264;26.940;2022-09-09T05:10:13;13.55;;;2.90;;
40871;SDS011;26591;43.264;26.940;2022-09-09T05:12:40;11.27;;;3.60;;
40871;SDS011;26591;43.264;26.940;2022-09-09T05:15:05;9.00;;;3.00;;
40871;SDS011;26591;43.264;26.940;2022-09-09T05:17:32;14.68;;;3.42;;
40871;SDS011;26591;43.264;26.940;2022-09-09T05:19:58;8.43;;;2.80;;
40871;SDS011;26591;43.264;26.940;2022-09-09T05:22:24;8.70;;;3.13;;
40871;SDS011;26591;43.264;26.940;2022-09-09T05:24:50;14.27;;;3.10;;
40871;SDS011;26591;43.264;26.940;2022-09-09T05:27:18;9.13;;;3.03;;
40871;SDS011;26591;43.264;26.940;2022-09-09T05:29:44;16.55;;;3.53;;
40871;SDS011;26591;43.264;26.940;2022-09-09T05:32:11;11.70;;;2.95;;
40871;SDS011;26591;43.264;26.940;2022-09-09T05:34:38;11.63;;;2.90;;
40871;SDS011;26591;43.264;26.940;2022-09-09T05:37:05;12.10;;;2.70;;
40871;SDS011;26591;43.264;26.940;2022-09-09T05:39:33;8.32;;;1.80;;
40871;SDS011;26591;43.264;26.940;2022-09-09T05:42:01;8.80;;;1.70;;
40871;SDS011;26591;43.264;26.940;2022-09-09T05:44:27;6.28;;;2.00;;
40871;SDS011;26591;43.264;26.940;2022-09-09T05:46:54;8.75;;;2.50;;
40871;SDS011;26591;43.264;26.940;2022-09-09T05:49:19;4.40;;;1.70;;
40871;SDS011;26591;43.264;26.940;2022-09-09T05:51:46;4.13;;;1.52;;
40871;SDS011;26591;43.264;26.940;2022-09-09T05:54:13;5.22;;;2.50;;
40871;SDS011;26591;43.264;26.940;2022-09-09T05:56:40;8.25;;;1.98;;
40871;SDS011;26591;43.264;26.940;2022-09-09T05:59:06;4.93;;;1.70;;
40871;SDS011;26591;43.264;26.940;2022-09-09T06:01:33;11.35;;;2.60;;
40871;SDS011;26591;43.264;26.940;2022-09-09T06:04:00;5.95;;;1.83;;
40871;SDS011;26591;43.264;26.940;2022-09-09T06:06:27;13.73;;;2.47;;
40871;SDS011;26591;43.264;26.940;2022-09-09T06:08:56;11.25;;;2.53;;
40871;SDS011;26591;43.264;26.940;2022-09-09T06:11:27;19.92;;;2.50;;
40871;SDS011;26591;43.264;26.940;2022-09-09T06:13:56;10.13;;;2.08;;
40871;SDS011;26591;43.264;26.940;2022-09-09T06:16:23;4.53;;;1.60;;
40871;SDS011;26591;43.264;26.940;2022-09-09T06:18:51;9.95;;;2.25;;
40871;SDS011;26591;43.264;26.940;2022-09-09T06:21:20;11.90;;;2.63;;
40871;SDS011;26591;43.264;26.940;2022-09-09T06:23:47;12.32;;;2.90;;
40871;SDS011;26591;43.264;26.940;2022-09-09T06:26:17;14.02;;;2.63;;
40871;SDS011;26591;43.264;26.940;2022-09-09T06:28:49;17.60;;;2.67;;
40871;SDS011;26591;43.264;26.940;2022-09-09T06:31:17;17.85;;;2.42;;
40871;SDS011;26591;43.264;26.940;2022-09-09T06:33:51;11.68;;;2.40;;
40871;SDS011;26591;43.264;26.940;2022-09-09T06:36:28;9.60;;;2.65;;
40871;SDS011;26591;43.264;26.940;2022-09-09T06:38:58;12.48;;;3.10;;
40871;SDS011;26591;43.264;26.940;2022-09-09T06:41:26;5.57;;;1.75;;
40871;SDS011;26591;43.264;26.940;2022-09-09T06:43:53;6.85;;;1.58;;
40871;SDS011;26591;43.264;26.940;2022-09-09T06:46:21;3.97;;;1.63;;
40871;SDS011;26591;43.264;26.940;2022-09-09T06:48:55;3.70;;;1.27;;
40871;SDS011;26591;43.264;26.940;2022-09-09T06:51:23;4.50;;;1.38;;
40871;SDS011;26591;43.264;26.940;2022-09-09T06:53:51;3.35;;;1.33;;
40871;SDS011;26591;43.264;26.940;2022-09-09T06:58:50;1.98;;;1.30;;
40871;SDS011;26591;43.264;26.940;2022-09-09T07:01:21;4.60;;;1.40;;
40871;SDS011;26591;43.264;26.940;2022-09-09T07:03:50;5.40;;;1.92;;
40871;SDS011;26591;43.264;26.940;2022-09-09T07:06:22;5.60;;;1.63;;
40871;SDS011;26591;43.264;26.940;2022-09-09T07:08:49;2.20;;;1.60;;
40871;SDS011;26591;43.264;26.940;2022-09-09T07:11:20;7.32;;;1.88;;
40871;SDS011;26591;43.264;26.940;2022-09-09T07:13:47;6.65;;;1.92;;
40871;SDS011;26591;43.264;26.940;2022-09-09T07:16:15;3.53;;;1.70;;
40871;SDS011;26591;43.264;26.940;2022-09-09T07:18:43;5.68;;;2.25;;
40871;SDS011;26591;43.264;26.940;2022-09-09T07:21:10;3.70;;;1.67;;
40871;SDS011;26591;43.264;26.940;2022-09-09T07:23:40;7.55;;;1.83;;
40871;SDS011;26591;43.264;26.940;2022-09-09T07:26:09;6.05;;;1.35;;
40871;SDS011;26591;43.264;26.940;2022-09-09T07:28:39;2.95;;;1.10;;
40871;SDS011;26591;43.264;26.940;2022-09-09T07:31:06;3.45;;;1.25;;
40871;SDS011;26591;43.264;26.940;2022-09-09T07:33:38;2.70;;;1.25;;
40871;SDS011;26591;43.264;26.940;2022-09-09T07:36:10;3.63;;;1.40;;
40871;SDS011;26591;43.264;26.940;2022-09-09T07:38:43;4.57;;;1.50;;
40871;SDS011;26591;43.264;26.940;2022-09-09T07:41:14;3.38;;;1.20;;
40871;SDS011;26591;43.264;26.940;2022-09-09T07:43:42;7.80;;;1.65;;
40871;SDS011;26591;43.264;26.940;2022-09-09T07:46:10;7.03;;;2.05;;
40871;SDS011;26591;43.264;26.940;2022-09-09T07:48:37;3.38;;;1.13;;
40871;SDS011;26591;43.264;26.940;2022-09-09T07:51:05;7.50;;;3.92;;
40871;SDS011;26591;43.264;26.940;2022-09-09T07:53:33;6.85;;;1.83;;
40871;SDS011;26591;43.264;26.940;2022-09-09T07:56:07;5.53;;;2.65;;
40871;SDS011;26591;43.264;26.940;2022-09-09T07:58:35;11.35;;;3.58;;
40871;SDS011;26591;43.264;26.940;2022-09-09T08:01:17;4.63;;;2.00;;
40871;SDS011;26591;43.264;26.940;2022-09-09T08:03:55;8.02;;;1.75;;
40871;SDS011;26591;43.264;26.940;2022-09-09T08:06:27;2.05;;;1.40;;
40871;SDS011;26591;43.264;26.940;2022-09-09T08:08:54;6.30;;;1.42;;
40871;SDS011;26591;43.264;26.940;2022-09-09T08:11:20;9.38;;;1.50;;
40871;SDS011;26591;43.264;26.940;2022-09-09T08:13:48;5.55;;;1.48;;
40871;SDS011;26591;43.264;26.940;2022-09-09T08:16:25;6.43;;;1.70;;
40871;SDS011;26591;43.264;26.940;2022-09-09T08:18:53;3.33;;;1.67;;
40871;SDS011;26591;43.264;26.940;2022-09-09T08:21:26;4.32;;;2.10;;
40871;SDS011;26591;43.264;26.940;2022-09-09T08:23:53;7.60;;;2.40;;
40871;SDS011;26591;43.264;26.940;2022-09-09T08:26:21;5.20;;;1.73;;
40871;SDS011;26591;43.264;26.940;2022-09-09T08:28:49;4.05;;;1.77;;
40871;SDS011;26591;43.264;26.940;2022-09-09T08:31:20;4.93;;;1.80;;
40871;SDS011;26591;43.264;26.940;2022-09-09T08:33:47;6.32;;;1.63;;
40871;SDS011;26591;43.264;26.940;2022-09-09T08:36:14;6.68;;;1.90;;
40871;SDS011;26591;43.264;26.940;2022-09-09T08:38:47;5.85;;;1.75;;
40871;SDS011;26591;43.264;26.940;2022-09-09T08:49:51;2.95;;;1.50;;
40871;SDS011;26591;43.264;26.940;2022-09-09T08:52:23;6.25;;;2.08;;
40871;SDS011;26591;43.264;26.940;2022-09-09T08:55:10;8.82;;;1.70;;
40871;SDS011;26591;43.264;26.940;2022-09-09T08:57:58;2.17;;;1.48;;
40871;SDS011;26591;43.264;26.940;2022-09-09T09:00:35;3.92;;;1.65;;
40871;SDS011;26591;43.264;26.940;2022-09-09T09:03:14;7.10;;;1.73;;
40871;SDS011;26591;43.264;26.940;2022-09-09T09:05:51;11.65;;;2.00;;
40871;SDS011;26591;43.264;26.940;2022-09-09T09:08:37;4.63;;;1.73;;
40871;SDS011;26591;43.264;26.940;2022-09-09T09:11:11;5.95;;;1.80;;
40871;SDS011;26591;43.264;26.940;2022-09-09T09:19:12;3.80;;;1.50;;
40871;SDS011;26591;43.264;26.940;2022-09-09T09:21:43;4.88;;;1.65;;
40871;SDS011;26591;43.264;26.940;2022-09-09T09:24:23;6.30;;;1.75;;
40871;SDS011;26591;43.264;26.940;2022-09-09T09:27:15;9.73;;;4.10;;
40871;SDS011;26591;43.264;26.940;2022-09-09T09:29:46;2.53;;;1.38;;
40871;SDS011;26591;43.264;26.940;2022-09-09T09:32:16;4.85;;;1.65;;
40871;SDS011;26591;43.264;26.940;2022-09-09T09:35:18;4.82;;;1.65;;
40871;SDS011;26591;43.264;26.940;2022-09-09T09:37:37;2.55;;;1.23;;
40871;SDS011;26591;43.264;26.940;2022-09-09T09:40:09;2.63;;;1.50;;
40871;SDS011;26591;43.264;26.940;2022-09-09T09:42:35;8.35;;;1.80;;
40871;SDS011;26591;43.264;26.940;2022-09-09T09:45:40;4.07;;;1.63;;
40871;SDS011;26591;43.264;26.940;2022-09-09T09:47:58;4.07;;;1.60;;
40871;SDS011;26591;43.264;26.940;2022-09-09T09:50:25;9.32;;;1.70;;
40871;SDS011;26591;43.264;26.940;2022-09-09T09:53:17;3.40;;;1.38;;
40871;SDS011;26591;43.264;26.940;2022-09-09T09:56:07;3.50;;;1.35;;
40871;SDS011;26591;43.264;26.940;2022-09-09T09:58:33;3.47;;;1.50;;
40871;SDS011;26591;43.264;26.940;2022-09-09T10:01:26;3.70;;;1.80;;
40871;SDS011;26591;43.264;26.940;2022-09-09T10:03:57;5.40;;;1.58;;
40871;SDS011;26591;43.264;26.940;2022-09-09T10:06:30;3.42;;;1.40;;
40871;SDS011;26591;43.264;26.940;2022-09-09T10:09:00;6.53;;;2.10;;
40871;SDS011;26591;43.264;26.940;2022-09-09T10:19:54;3.10;;;1.35;;
40871;SDS011;26591;43.264;26.940;2022-09-09T10:22:35;12.18;;;3.33;;
40871;SDS011;26591;43.264;26.940;2022-09-09T10:33:44;8.43;;;2.70;;
40871;SDS011;26591;43.264;26.940;2022-09-09T10:36:25;15.70;;;2.13;;
40871;SDS011;26591;43.264;26.940;2022-09-09T10:39:06;7.13;;;1.85;;
40871;SDS011;26591;43.264;26.940;2022-09-09T10:44:30;7.57;;;1.50;;
40871;SDS011;26591;43.264;26.940;2022-09-09T10:52:44;7.13;;;1.90;;
40871;SDS011;26591;43.264;26.940;2022-09-09T10:55:16;2.03;;;1.60;;
40871;SDS011;26591;43.264;26.940;2022-09-09T11:00:15;6.25;;;1.63;;
40871;SDS011;26591;43.264;26.940;2022-09-09T11:02:44;5.88;;;1.90;;
40871;SDS011;26591;43.264;26.940;2022-09-09T11:05:20;4.50;;;1.75;;
40871;SDS011;26591;43.264;26.940;2022-09-09T11:07:55;6.55;;;1.73;;
40871;SDS011;26591;43.264;26.940;2022-09-09T11:10:30;3.50;;;1.77;;
40871;SDS011;26591;43.264;26.940;2022-09-09T11:13:08;7.22;;;1.60;;
40871;SDS011;26591;43.264;26.940;2022-09-09T11:15:48;3.72;;;1.85;;
40871;SDS011;26591;43.264;26.940;2022-09-09T11:18:19;6.28;;;1.75;;
40871;SDS011;26591;43.264;26.940;2022-09-09T11:20:47;5.80;;;1.90;;
40871;SDS011;26591;43.264;26.940;2022-09-09T11:23:20;8.75;;;1.83;;
40871;SDS011;26591;43.264;26.940;2022-09-09T11:25:57;12.00;;;2.28;;
40871;SDS011;26591;43.264;26.940;2022-09-09T11:31:29;8.52;;;1.88;;
40871;SDS011;26591;43.264;26.940;2022-09-09T11:42:05;8.50;;;5.35;;
40871;SDS011;26591;43.264;26.940;2022-09-09T11:44:51;3.75;;;2.85;;
40871;SDS011;26591;43.264;26.940;2022-09-09T11:47:26;6.55;;;1.80;;
40871;SDS011;26591;43.264;26.940;2022-09-09T11:52:43;5.47;;;1.52;;
40871;SDS011;26591;43.264;26.940;2022-09-09T11:55:26;8.02;;;2.33;;
40871;SDS011;26591;43.264;26.940;2022-09-09T11:57:58;7.70;;;2.10;;
40871;SDS011;26591;43.264;26.940;2022-09-09T12:00:43;2.33;;;1.73;;
40871;SDS011;26591;43.264;26.940;2022-09-09T12:09:06;5.72;;;1.83;;
40871;SDS011;26591;43.264;26.940;2022-09-09T12:11:53;3.25;;;1.67;;
40871;SDS011;26591;43.264;26.940;2022-09-09T12:14:59;2.15;;;1.55;;
40871;SDS011;26591;43.264;26.940;2022-09-09T12:17:28;4.70;;;1.70;;
40871;SDS011;26591;43.264;26.940;2022-09-09T12:20:00;4.05;;;1.65;;
40871;SDS011;26591;43.264;26.940;2022-09-09T12:25:16;8.27;;;1.60;;
40871;SDS011;26591;43.264;26.940;2022-09-09T12:31:06;2.85;;;1.70;;
40871;SDS011;26591;43.264;26.940;2022-09-09T12:33:42;8.48;;;1.77;;
40871;SDS011;26591;43.264;26.940;2022-09-09T12:36:18;4.57;;;1.67;;
40871;SDS011;26591;43.264;26.940;2022-09-09T12:38:46;6.70;;;1.75;;
40871;SDS011;26591;43.264;26.940;2022-09-09T12:41:25;8.85;;;2.03;;
40871;SDS011;26591;43.264;26.940;2022-09-09T12:44:02;4.85;;;1.90;;
40871;SDS011;26591;43.264;26.940;2022-09-09T12:46:40;6.63;;;1.60;;
40871;SDS011;26591;43.264;26.940;2022-09-09T12:52:07;4.80;;;1.70;;
40871;SDS011;26591;43.264;26.940;2022-09-09T12:54:42;7.35;;;1.60;;
40871;SDS011;26591;43.264;26.940;2022-09-09T12:57:12;4.70;;;1.70;;
40871;SDS011;26591;43.264;26.940;2022-09-09T12:59:40;9.00;;;1.60;;
40871;SDS011;26591;43.264;26.940;2022-09-09T13:05:14;2.45;;;1.70;;
40871;SDS011;26591;43.264;26.940;2022-09-09T13:07:42;8.82;;;2.50;;
40871;SDS011;26591;43.264;26.940;2022-09-09T13:10:10;8.57;;;2.50;;
40871;SDS011;26591;43.264;26.940;2022-09-09T13:12:37;2.97;;;1.67;;
40871;SDS011;26591;43.264;26.940;2022-09-09T13:15:03;2.33;;;1.63;;
40871;SDS011;26591;43.264;26.940;2022-09-09T13:17:29;4.65;;;1.80;;
40871;SDS011;26591;43.264;26.940;2022-09-09T13:19:55;9.32;;;1.98;;
40871;SDS011;26591;43.264;26.940;2022-09-09T13:22:23;3.63;;;1.80;;
40871;SDS011;26591;43.264;26.940;2022-09-09T13:24:59;6.35;;;2.10;;
40871;SDS011;26591;43.264;26.940;2022-09-09T13:28:02;2.03;;;1.55;;
40871;SDS011;26591;43.264;26.940;2022-09-09T13:35:29;5.40;;;2.03;;
40871;SDS011;26591;43.264;26.940;2022-09-09T13:37:55;7.68;;;1.90;;
40871;SDS011;26591;43.264;26.940;2022-09-09T13:40:22;5.43;;;1.65;;
40871;SDS011;26591;43.264;26.940;2022-09-09T13:42:51;9.05;;;2.00;;
40871;SDS011;26591;43.264;26.940;2022-09-09T13:45:19;6.88;;;1.92;;
40871;SDS011;26591;43.264;26.940;2022-09-09T13:47:48;4.00;;;1.80;;
40871;SDS011;26591;43.264;26.940;2022-09-09T13:50:20;3.85;;;1.67;;
40871;SDS011;26591;43.264;26.940;2022-09-09T13:52:48;5.43;;;1.88;;
40871;SDS011;26591;43.264;26.940;2022-09-09T13:55:16;5.88;;;2.17;;
40871;SDS011;26591;43.264;26.940;2022-09-09T13:57:56;2.95;;;1.98;;
40871;SDS011;26591;43.264;26.940;2022-09-09T14:00:28;5.68;;;2.05;;
40871;SDS011;26591;43.264;26.940;2022-09-09T14:02:56;8.05;;;2.10;;
40871;SDS011;26591;43.264;26.940;2022-09-09T14:05:22;3.47;;;1.70;;
40871;SDS011;26591;43.264;26.940;2022-09-09T14:07:48;3.97;;;2.20;;
40871;SDS011;26591;43.264;26.940;2022-09-09T14:10:14;5.38;;;2.00;;
40871;SDS011;26591;43.264;26.940;2022-09-09T14:12:41;9.55;;;2.20;;
40871;SDS011;26591;43.264;26.940;2022-09-09T14:15:06;2.53;;;1.98;;
40871;SDS011;26591;43.264;26.940;2022-09-09T14:17:35;3.42;;;2.00;;
40871;SDS011;26591;43.264;26.940;2022-09-09T14:20:02;4.00;;;2.00;;
40871;SDS011;26591;43.264;26.940;2022-09-09T14:24:56;6.03;;;2.13;;
40871;SDS011;26591;43.264;26.940;2022-09-09T14:27:22;10.57;;;2.10;;
40871;SDS011;26591;43.264;26.940;2022-09-09T14:29:48;3.20;;;1.85;;
40871;SDS011;26591;43.264;26.940;2022-09-09T14:32:13;6.68;;;2.00;;
40871;SDS011;26591;43.264;26.940;2022-09-09T14:34:39;3.95;;;2.15;;
40871;SDS011;26591;43.264;26.940;2022-09-09T14:37:05;2.85;;;1.90;;
40871;SDS011;26591;43.264;26.940;2022-09-09T14:39:31;6.60;;;2.10;;
40871;SDS011;26591;43.264;26.940;2022-09-09T14:41:57;10.00;;;2.45;;
40871;SDS011;26591;43.264;26.940;2022-09-09T14:44:23;3.53;;;2.13;;
40871;SDS011;26591;43.264;26.940;2022-09-09T14:46:48;4.53;;;1.73;;
40871;SDS011;26591;43.264;26.940;2022-09-09T14:49:18;3.47;;;1.80;;
40871;SDS011;26591;43.264;26.940;2022-09-09T14:51:43;9.05;;;2.67;;
40871;SDS011;26591;43.264;26.940;2022-09-09T14:54:09;5.97;;;2.00;;
40871;SDS011;26591;43.264;26.940;2022-09-09T14:56:35;5.90;;;2.30;;
40871;SDS011;26591;43.264;26.940;2022-09-09T14:59:01;3.08;;;1.70;;
40871;SDS011;26591;43.264;26.940;2022-09-09T15:01:28;4.35;;;2.10;;
40871;SDS011;26591;43.264;26.940;2022-09-09T15:03:56;6.88;;;2.13;;
40871;SDS011;26591;43.264;26.940;2022-09-09T15:06:23;4.95;;;2.10;;
40871;SDS011;26591;43.264;26.940;2022-09-09T15:08:51;5.60;;;1.70;;
40871;SDS011;26591;43.264;26.940;2022-09-09T15:11:18;3.72;;;2.10;;
40871;SDS011;26591;43.264;26.940;2022-09-09T15:13:45;5.80;;;1.65;;
40871;SDS011;26591;43.264;26.940;2022-09-09T15:16:18;3.53;;;1.50;;
40871;SDS011;26591;43.264;26.940;2022-09-09T15:18:45;6.88;;;1.13;;
40871;SDS011;26591;43.264;26.940;2022-09-09T15:21:12;6.47;;;1.20;;
40871;SDS011;26591;43.264;26.940;2022-09-09T15:23:40;4.22;;;1.52;;
40871;SDS011;26591;43.264;26.940;2022-09-09T15:26:07;2.58;;;1.20;;
40871;SDS011;26591;43.264;26.940;2022-09-09T15:28:33;3.65;;;1.20;;
40871;SDS011;26591;43.264;26.940;2022-09-09T15:31:36;7.45;;;1.30;;
40871;SDS011;26591;43.264;26.940;2022-09-09T15:33:57;2.83;;;1.15;;
40871;SDS011;26591;43.264;26.940;2022-09-09T15:36:29;3.00;;;1.20;;
40871;SDS011;26591;43.264;26.940;2022-09-09T15:39:06;10.57;;;1.27;;
40871;SDS011;26591;43.264;26.940;2022-09-09T15:41:34;5.50;;;1.33;;
40871;SDS011;26591;43.264;26.940;2022-09-09T15:44:02;5.95;;;1.30;;
40871;SDS011;26591;43.264;26.940;2022-09-09T15:46:32;5.25;;;1.08;;
40871;SDS011;26591;43.264;26.940;2022-09-09T15:49:04;1.85;;;1.00;;
40871;SDS011;26591;43.264;26.940;2022-09-09T15:51:29;2.65;;;1.00;;
40871;SDS011;26591;43.264;26.940;2022-09-09T15:53:56;3.72;;;1.10;;
40871;SDS011;26591;43.264;26.940;2022-09-09T15:56:23;5.70;;;1.45;;
40871;SDS011;26591;43.264;26.940;2022-09-09T15:58:50;3.63;;;1.23;;
40871;SDS011;26591;43.264;26.940;2022-09-09T16:01:17;4.65;;;1.10;;
40871;SDS011;26591;43.264;26.940;2022-09-09T16:03:44;8.35;;;1.55;;
40871;SDS011;26591;43.264;26.940;2022-09-09T16:06:12;10.15;;;3.75;;
40871;SDS011;26591;43.264;26.940;2022-09-09T16:08:40;7.18;;;1.70;;
40871;SDS011;26591;43.264;26.940;2022-09-09T16:11:09;5.30;;;1.53;;
40871;SDS011;26591;43.264;26.940;2022-09-09T16:13:39;6.47;;;1.80;;
40871;SDS011;26591;43.264;26.940;2022-09-09T16:16:06;7.53;;;1.70;;
40871;SDS011;26591;43.264;26.940;2022-09-09T16:18:33;3.60;;;1.30;;
40871;SDS011;26591;43.264;26.940;2022-09-09T16:21:00;4.88;;;1.50;;
40871;SDS011;26591;43.264;26.940;2022-09-09T16:23:26;5.32;;;1.38;;
40871;SDS011;26591;43.264;26.940;2022-09-09T16:25:55;3.15;;;1.60;;
40871;SDS011;26591;43.264;26.940;2022-09-09T16:28:21;5.95;;;1.73;;
40871;SDS011;26591;43.264;26.940;2022-09-09T16:30:47;5.75;;;1.98;;
40871;SDS011;26591;43.264;26.940;2022-09-09T16:33:13;4.00;;;1.40;;
40871;SDS011;26591;43.264;26.940;2022-09-09T16:35:42;2.92;;;1.60;;
40871;SDS011;26591;43.264;26.940;2022-09-09T16:38:07;5.50;;;1.40;;
40871;SDS011;26591;43.264;26.940;2022-09-09T16:40:33;5.55;;;1.55;;
40871;SDS011;26591;43.264;26.940;2022-09-09T16:43:00;2.30;;;1.50;;
40871;SDS011;26591;43.264;26.940;2022-09-09T16:45:26;3.22;;;1.23;;
40871;SDS011;26591;43.264;26.940;2022-09-09T16:47:52;4.90;;;1.67;;
40871;SDS011;26591;43.264;26.940;2022-09-09T16:50:18;3.28;;;1.40;;
40871;SDS011;26591;43.264;26.940;2022-09-09T16:52:44;2.95;;;1.10;;
40871;SDS011;26591;43.264;26.940;2022-09-09T16:55:09;4.13;;;2.47;;
40871;SDS011;26591;43.264;26.940;2022-09-09T16:57:35;2.50;;;1.30;;
40871;SDS011;26591;43.264;26.940;2022-09-09T17:00:00;2.50;;;1.45;;
40871;SDS011;26591;43.264;26.940;2022-09-09T17:02:29;6.70;;;1.45;;
40871;SDS011;26591;43.264;26.940;2022-09-09T17:04:57;4.60;;;2.17;;